Airfield :
LOGIN :

Register | Disclaimer

   EN    FR    IT 

 










Legend :    VFR   Marginal VFR   IFR   Intensive IFR   Very Intensive IFR
Visi :
Ceiling :
>= 8 km
>= 3000ft
5 to 8 km
1000 to 3000 ft
1500m to 5 km
500 to 1000 ft
800 to 1500m
200 to 500 ft
< 800m
< 200 ft
Symbols :   Thunderstorms  Fog  Heavy snow  Heavy precipitations  Wind > 20 kt
SIGMETs :     Misc.  Thunderstorms  Icing  Turbulence  Mountain Waves  Volcanic Ashes






- Airport Elevation : 13 ft
- IATA code : SNR


LFRZ - St-Nazaire

CURRENT METAR :
  • 221300Z AUTO 06007KT 010V090 CAVOK 27/16 Q1009 NOSIG

EXPIRED METARs :
  • 221230Z AUTO 06009KT 030V090 CAVOK 26/16 Q1009 NOSIG
  • 221200Z AUTO 05009KT CAVOK 25/15 Q1009 NOSIG
  • 221130Z AUTO 05009KT CAVOK 24/14 Q1010 NOSIG
  • 221100Z AUTO 04007KT 360V080 CAVOK 25/15 Q1010 NOSIG
  • 221030Z AUTO 05009KT CAVOK 23/14 Q1011 NOSIG

TAF TAF LFRZ
Valid from the 22 at 12:00 until the 23 at 12:00 UTC


221100Z 2212/2312 05008KT CAVOK
BECMG 2301/2303 32010KT
TEMPO 2217/2306 VRB15G25KT 4000 SHRA BKN060CB
PROB40
TEMPO 2217/2224 VRB15G25KT 4000 TSRA BKN050CB
PROB30
TEMPO 2217/2222 VRB20G35KT 2000 TSRAGR BKN040CB
PROB40
TEMPO 2303/2306 BKN007
PROB30
TEMPO 2307/2312 4500 -SHRA BKN030TCU
BECMG 2309/2312 26013KT



MET'MAP, your aeronautical weather chart ! - Copyright ORBIFLY December 2007 - Disclaimer

ORBIFLY MET'MAP TEAM :

Programming & Development : Alexandra Zaïnal
Original concept : Baudouin d'Aumeries
Technical & hardware support : Manuel Goepfert
Assistance : Marc-Olivier Méhu

Contact : metmap@orbifly.com




SOURCES & CREDITS :

   NOAA